createdAt,value
2017-02-15T00:00:48.171Z,23.25
2017-02-15T00:01:47.579Z,23.17
2017-02-15T00:02:47.542Z,23.24
2017-02-15T00:03:47.449Z,23.24
2017-02-15T00:04:47.430Z,23.23
2017-02-15T00:05:46.937Z,23.25
2017-02-15T00:06:47.265Z,23.18
2017-02-15T00:07:47.208Z,23.21
2017-02-15T00:08:47.133Z,23.2
2017-02-15T00:09:47.070Z,23.25
2017-02-15T00:10:47.014Z,23.18
2017-02-15T00:11:46.954Z,23.24
2017-02-15T00:12:46.892Z,23.28
2017-02-15T00:13:46.432Z,23.2
2017-02-15T00:14:45.998Z,23.23
2017-02-15T00:15:46.692Z,23.2
2017-02-15T00:16:46.632Z,23.21
2017-02-15T00:17:46.561Z,23.21
2017-02-15T00:18:46.494Z,23.18
2017-02-15T00:19:46.450Z,23.24
2017-02-15T00:20:46.379Z,23.24
2017-02-15T00:21:46.318Z,23.23
2017-02-15T00:22:46.243Z,23.24
2017-02-15T00:23:46.185Z,23.2
2017-02-15T00:24:46.117Z,23.21
2017-02-15T00:25:46.051Z,23.17
2017-02-15T00:26:46.006Z,23.24
2017-02-15T00:27:45.922Z,23.25
2017-02-15T00:28:45.861Z,23.21
2017-02-15T00:29:45.809Z,23.23
2017-02-15T00:30:45.740Z,23.23
2017-02-15T00:31:45.669Z,23.23
2017-02-15T00:32:45.635Z,23.2
2017-02-15T00:33:45.541Z,23.25
2017-02-15T00:34:45.494Z,23.21
2017-02-15T00:35:45.471Z,23.24
2017-02-15T00:36:45.370Z,23.25
2017-02-15T00:37:45.302Z,23.21
2017-02-15T00:38:45.230Z,23.23
2017-02-15T00:39:45.170Z,23.21
2017-02-15T00:40:45.103Z,23.23
2017-02-15T00:41:45.031Z,23.27
2017-02-15T00:42:44.968Z,23.23
2017-02-15T00:43:44.941Z,23.24
2017-02-15T00:44:44.845Z,23.18
2017-02-15T00:45:44.780Z,23.23
2017-02-15T00:46:44.713Z,23.27
2017-02-15T00:47:44.669Z,23.21
2017-02-15T00:48:44.627Z,23.24
2017-02-15T00:49:44.523Z,23.23
2017-02-15T00:50:44.481Z,23.17
2017-02-15T00:51:44.395Z,23.21
2017-02-15T00:52:44.337Z,23.21
2017-02-15T00:53:43.905Z,23.24
2017-02-15T00:54:44.211Z,23.27
2017-02-15T00:55:44.145Z,23.2
2017-02-15T00:56:44.095Z,23.21
2017-02-15T00:57:43.632Z,23.21
2017-02-15T00:58:43.974Z,23.2
2017-02-15T00:59:43.519Z,23.18
2017-02-15T01:01:15.859Z,23.2
2017-02-15T01:02:15.031Z,23.23
2017-02-15T01:03:15.353Z,23.28
2017-02-15T01:04:15.291Z,23.24
2017-02-15T01:05:15.231Z,23.18
2017-02-15T01:06:14.776Z,23.24
2017-02-15T01:07:14.714Z,23.27
2017-02-15T01:08:15.026Z,23.24
2017-02-15T01:09:14.971Z,23.24
2017-02-15T01:10:15.161Z,23.24
2017-02-15T01:11:14.452Z,23.24
2017-02-15T01:12:14.789Z,23.2
2017-02-15T01:13:14.710Z,23.23
2017-02-15T01:14:14.647Z,23.2
2017-02-15T01:15:14.598Z,23.24
2017-02-15T01:16:14.522Z,23.23
2017-02-15T01:17:14.469Z,23.21
2017-02-15T01:18:14.018Z,23.18
2017-02-15T01:19:14.325Z,23.27
2017-02-15T01:20:13.878Z,23.24
2017-02-15T01:21:14.221Z,23.18
2017-02-15T01:22:14.139Z,23.28
2017-02-15T01:23:14.082Z,23.25
2017-02-15T01:24:14.023Z,23.23
2017-02-15T01:25:13.946Z,23.27
2017-02-15T01:26:13.892Z,23.24
2017-02-15T01:27:13.825Z,23.23
2017-02-15T01:28:12.988Z,23.23
2017-02-15T01:29:13.690Z,23.21
2017-02-15T01:30:13.640Z,23.25
2017-02-15T01:31:13.564Z,23.21
2017-02-15T01:32:13.516Z,23.27
2017-02-15T01:33:13.442Z,23.24
2017-02-15T01:34:13.381Z,23.23
2017-02-15T01:35:13.306Z,23.2
2017-02-15T01:36:12.872Z,23.25
2017-02-15T01:37:13.189Z,23.24
2017-02-15T01:38:13.119Z,23.25
2017-02-15T01:39:13.055Z,23.21
2017-02-15T01:40:12.988Z,23.21
2017-02-15T01:41:12.923Z,23.21
2017-02-15T01:42:12.488Z,23.21
2017-02-15T01:43:12.799Z,23.18
2017-02-15T01:44:12.371Z,23.27
2017-02-15T01:45:12.671Z,23.23
2017-02-15T01:46:12.619Z,23.23
2017-02-15T01:47:12.548Z,23.2
2017-02-15T01:48:12.095Z,23.18
2017-02-15T01:49:12.419Z,23.23
2017-02-15T01:50:12.367Z,23.23
2017-02-15T01:51:12.309Z,23.25
2017-02-15T01:52:12.226Z,23.18
2017-02-15T01:53:12.161Z,23.21
2017-02-15T01:54:12.120Z,23.21
2017-02-15T01:55:11.953Z,23.28
2017-02-15T01:56:11.980Z,23.17
2017-02-15T01:57:11.908Z,23.21
2017-02-15T01:58:11.470Z,23.23
2017-02-15T01:59:11.790Z,23.23
2017-02-15T02:00:11.966Z,23.2
2017-02-15T02:01:11.653Z,23.25
2017-02-15T02:02:11.614Z,23.23
2017-02-15T02:03:11.556Z,23.23
2017-02-15T02:04:11.479Z,23.2
2017-02-15T02:05:11.400Z,23.24
2017-02-15T02:06:11.353Z,23.23
2017-02-15T02:07:11.289Z,23.25
2017-02-15T02:08:11.212Z,23.24
2017-02-15T02:09:11.144Z,23.27
2017-02-15T02:10:10.714Z,23.25
2017-02-15T02:11:11.035Z,23.27
2017-02-15T02:12:10.952Z,23.23
2017-02-15T02:13:10.891Z,23.23
2017-02-15T02:14:10.834Z,23.23
2017-02-15T02:15:10.377Z,23.27
2017-02-15T02:16:10.322Z,23.23
2017-02-15T02:17:10.635Z,23.28
2017-02-15T02:18:10.580Z,23.24
2017-02-15T02:19:10.134Z,23.21
2017-02-15T02:20:10.751Z,23.2
2017-02-15T02:21:10.392Z,23.28
2017-02-15T02:22:09.943Z,23.21
2017-02-15T02:23:10.247Z,23.2
2017-02-15T02:24:10.189Z,23.21
2017-02-15T02:25:10.167Z,23.24
2017-02-15T02:26:09.691Z,23.25
2017-02-15T02:27:09.612Z,23.25
2017-02-15T02:28:09.956Z,23.25
2017-02-15T02:29:09.483Z,23.23
2017-02-15T02:30:10.068Z,23.21
2017-02-15T02:31:09.742Z,23.23
2017-02-15T02:32:09.298Z,23.27
2017-02-15T02:33:09.624Z,23.34
2017-02-15T02:34:09.564Z,23.25
2017-02-15T02:35:09.793Z,23.36
2017-02-15T02:36:09.441Z,23.32
2017-02-15T02:37:09.365Z,23.36
2017-02-15T02:38:09.301Z,23.34
2017-02-15T02:39:09.240Z,23.32
2017-02-15T02:40:09.172Z,23.31
2017-02-15T02:41:09.108Z,23.27
2017-02-15T02:42:08.672Z,23.39
2017-02-15T02:43:08.980Z,23.25
2017-02-15T02:44:08.929Z,23.4
2017-02-15T02:45:08.872Z,23.31
2017-02-15T02:46:08.786Z,23.28
2017-02-15T02:47:08.736Z,23.28
2017-02-15T02:48:08.678Z,23.36
2017-02-15T02:49:08.239Z,23.34
2017-02-15T02:50:08.533Z,23.31
2017-02-15T02:51:08.496Z,23.31
2017-02-15T02:52:08.407Z,23.27
2017-02-15T02:53:08.343Z,23.36
2017-02-15T02:54:08.281Z,23.31
2017-02-15T02:55:08.223Z,23.37
2017-02-15T02:56:08.154Z,23.4
2017-02-15T02:57:08.096Z,23.36
2017-02-15T02:58:08.024Z,23.32
2017-02-15T02:59:07.977Z,23.31
2017-02-15T03:00:07.928Z,23.34
2017-02-15T03:01:07.850Z,23.25
2017-02-15T03:02:07.773Z,23.32
2017-02-15T03:03:07.710Z,23.23
2017-02-15T03:04:07.655Z,23.34
2017-02-15T03:05:07.591Z,23.34
2017-02-15T03:06:07.135Z,23.31
2017-02-15T03:07:07.453Z,23.32
2017-02-15T03:08:07.395Z,23.37
2017-02-15T03:09:07.333Z,23.39
2017-02-15T03:10:07.273Z,23.34
2017-02-15T03:11:07.202Z,23.37
2017-02-15T03:12:07.173Z,23.32
2017-02-15T03:13:07.074Z,23.28
2017-02-15T03:14:07.020Z,23.37
2017-02-15T03:15:06.957Z,23.4
2017-02-15T03:16:06.899Z,23.37
2017-02-15T03:17:06.820Z,23.25
2017-02-15T03:18:06.763Z,23.31
2017-02-15T03:19:06.722Z,23.41
2017-02-15T03:20:06.628Z,23.36
2017-02-15T03:21:06.568Z,23.37
2017-02-15T03:22:06.505Z,23.36
2017-02-15T03:23:06.447Z,23.34
2017-02-15T03:24:06.374Z,23.32
2017-02-15T03:25:06.323Z,23.36
2017-02-15T03:26:06.259Z,23.44
2017-02-15T03:27:06.185Z,23.34
2017-02-15T03:28:06.118Z,23.46
2017-02-15T03:29:06.074Z,23.5
2017-02-15T03:30:05.613Z,23.44
2017-02-15T03:31:05.944Z,23.34
2017-02-15T03:32:05.497Z,23.32
2017-02-15T03:33:05.813Z,23.39
2017-02-15T03:34:05.742Z,23.39
2017-02-15T03:35:05.309Z,23.44
2017-02-15T03:36:05.641Z,23.44
2017-02-15T03:37:05.559Z,23.34
2017-02-15T03:38:05.486Z,23.27
2017-02-15T03:39:05.443Z,23.39
2017-02-15T03:40:05.367Z,23.37
2017-02-15T03:41:05.301Z,23.34
2017-02-15T03:42:05.265Z,23.32
2017-02-15T03:43:05.171Z,23.34
2017-02-15T03:44:05.105Z,23.34
2017-02-15T03:45:05.069Z,23.24
2017-02-15T03:46:05.002Z,23.32
2017-02-15T03:47:04.918Z,23.31
2017-02-15T03:48:04.852Z,23.31
2017-02-15T03:49:04.418Z,23.31
2017-02-15T03:50:04.747Z,23.34
2017-02-15T03:51:04.668Z,23.31
2017-02-15T03:52:04.599Z,23.31
2017-02-15T03:53:04.556Z,23.28
2017-02-15T03:54:04.472Z,23.28
2017-02-15T03:55:04.432Z,23.25
2017-02-15T03:56:04.345Z,23.31
2017-02-15T03:57:04.283Z,23.28
2017-02-15T03:58:04.230Z,23.31
2017-02-15T03:59:04.154Z,23.37
2017-02-15T04:00:04.106Z,23.37
2017-02-15T04:01:04.055Z,23.27
2017-02-15T04:02:03.972Z,23.34
2017-02-15T04:03:03.928Z,23.28
2017-02-15T04:04:03.848Z,23.27
2017-02-15T04:05:03.783Z,23.32
2017-02-15T04:06:03.724Z,23.32
2017-02-15T04:07:03.656Z,23.39
2017-02-15T04:08:03.591Z,23.39
2017-02-15T04:09:03.528Z,23.36
2017-02-15T04:10:03.464Z,23.24
2017-02-15T04:11:03.395Z,23.27
2017-02-15T04:12:03.332Z,23.27
2017-02-15T04:13:03.286Z,23.24
2017-02-15T04:14:03.212Z,23.27
2017-02-15T04:15:03.148Z,23.25
2017-02-15T04:16:03.076Z,23.28
2017-02-15T04:17:03.035Z,23.37
2017-02-15T04:18:02.949Z,23.32
2017-02-15T04:19:02.888Z,23.36
2017-02-15T04:20:02.836Z,23.27
2017-02-15T04:21:02.756Z,23.36
2017-02-15T04:22:02.700Z,23.36
2017-02-15T04:23:02.652Z,23.32
2017-02-15T04:24:02.576Z,23.37
2017-02-15T04:25:02.503Z,23.2
2017-02-15T04:26:02.454Z,23.31
2017-02-15T04:27:02.384Z,23.27
2017-02-15T04:28:02.324Z,23.24
2017-02-15T04:29:02.249Z,23.27
2017-02-15T04:30:02.485Z,23.31
2017-02-15T04:31:02.121Z,23.25
2017-02-15T04:32:02.057Z,23.2
2017-02-15T04:33:02.012Z,23.23
2017-02-15T04:34:01.930Z,23.24
2017-02-15T04:35:01.869Z,23.27
2017-02-15T04:36:01.818Z,23.27
2017-02-15T04:37:01.740Z,23.34
2017-02-15T04:38:01.676Z,23.25
2017-02-15T04:39:01.616Z,23.25
2017-02-15T04:40:01.592Z,23.32
2017-02-15T04:41:01.489Z,23.27
2017-02-15T04:42:01.424Z,23.31
2017-02-15T04:43:01.367Z,23.31
2017-02-15T04:44:01.315Z,23.32
2017-02-15T04:45:01.236Z,23.27
2017-02-15T04:46:01.182Z,23.28
2017-02-15T04:47:01.112Z,23.36
2017-02-15T04:48:01.052Z,23.28
2017-02-15T04:49:00.997Z,23.25
2017-02-15T04:50:00.911Z,23.21
2017-02-15T04:51:00.849Z,23.31
2017-02-15T04:52:00.789Z,23.21
2017-02-15T04:53:00.746Z,23.23
2017-02-15T04:54:00.658Z,23.23
2017-02-15T04:55:00.609Z,23.24
2017-02-15T04:56:00.533Z,23.25
2017-02-15T04:57:00.470Z,23.28
2017-02-15T04:58:00.404Z,23.23
2017-02-15T04:59:00.340Z,23.24
2017-02-15T05:00:00.277Z,23.27
2017-02-15T05:01:00.233Z,23.27
2017-02-15T05:02:00.152Z,23.23
2017-02-15T05:03:00.085Z,23.28
2017-02-15T05:04:00.043Z,23.21
2017-02-15T05:04:59.985Z,23.2
2017-02-15T05:05:59.894Z,23.21
2017-02-15T05:06:59.832Z,23.21
2017-02-15T05:07:59.785Z,23.23
2017-02-15T05:08:59.704Z,23.18
2017-02-15T05:09:59.644Z,23.24
2017-02-15T05:10:59.589Z,23.23
2017-02-15T05:11:59.518Z,23.23
2017-02-15T05:12:59.458Z,23.24
2017-02-15T05:13:59.002Z,23.21
2017-02-15T05:14:58.946Z,23.18
2017-02-15T05:15:59.258Z,23.17
2017-02-15T05:16:59.209Z,23.15
2017-02-15T05:17:59.132Z,23.23
2017-02-15T05:18:59.065Z,23.24
2017-02-15T05:19:59.010Z,23.2
2017-02-15T05:20:58.972Z,23.15
2017-02-15T05:21:58.878Z,23.17
2017-02-15T05:22:58.816Z,23.18
2017-02-15T05:23:58.760Z,23.18
2017-02-15T05:24:58.688Z,23.1
2017-02-15T05:25:58.631Z,23.18
2017-02-15T05:26:58.565Z,23.12
2017-02-15T05:27:58.497Z,23.15
2017-02-15T05:28:58.445Z,23.13
2017-02-15T05:29:58.386Z,23.13
2017-02-15T05:30:58.303Z,23.09
2017-02-15T05:31:58.254Z,23.15
2017-02-15T05:32:58.199Z,23.12
2017-02-15T05:33:58.116Z,23.13
2017-02-15T05:34:58.069Z,23.12
2017-02-15T05:35:58.003Z,23.1
2017-02-15T05:36:57.926Z,23.12
2017-02-15T05:37:57.877Z,23.1
2017-02-15T05:38:57.420Z,23.13
2017-02-15T05:39:57.734Z,23.2
2017-02-15T05:40:57.669Z,23.1
2017-02-15T05:41:57.625Z,23.13
2017-02-15T05:42:57.555Z,23.17
2017-02-15T05:43:57.477Z,23.09
2017-02-15T05:44:57.420Z,23.1
2017-02-15T05:45:57.373Z,23.09
2017-02-15T05:46:57.286Z,23.09
2017-02-15T05:47:57.225Z,23.05
2017-02-15T05:48:57.159Z,23.09
2017-02-15T05:49:57.093Z,23.1
2017-02-15T05:50:57.034Z,23.1
2017-02-15T05:51:56.976Z,23.13
2017-02-15T05:52:56.910Z,23.13
2017-02-15T05:53:56.842Z,23.03
2017-02-15T05:54:56.777Z,23.09
2017-02-15T05:55:56.723Z,23.12
2017-02-15T05:56:56.654Z,23.1
2017-02-15T05:57:56.591Z,23.17
2017-02-15T05:58:56.524Z,23.08
2017-02-15T05:59:56.455Z,23.06
2017-02-15T06:00:56.395Z,23.13
2017-02-15T06:01:56.352Z,23.12
2017-02-15T06:02:56.269Z,23.08
2017-02-15T06:03:56.202Z,23.08
2017-02-15T06:04:56.148Z,23.05
2017-02-15T06:05:56.089Z,23.06
2017-02-15T06:06:56.029Z,23
2017-02-15T06:07:55.946Z,23.12
2017-02-15T06:08:55.895Z,23.03
2017-02-15T06:09:55.830Z,23.03
2017-02-15T06:10:55.781Z,23.05
2017-02-15T06:11:55.692Z,23.03
2017-02-15T06:12:55.629Z,23
2017-02-15T06:13:55.563Z,23.02
2017-02-15T06:14:55.499Z,23.02
2017-02-15T06:15:55.441Z,22.99
2017-02-15T06:16:55.376Z,23.03
2017-02-15T06:17:55.312Z,23.05
2017-02-15T06:18:55.243Z,23.02
2017-02-15T06:19:55.205Z,23.06
2017-02-15T06:20:55.137Z,23
2017-02-15T06:21:55.058Z,23.02
2017-02-15T06:22:54.992Z,23.03
2017-02-15T06:23:54.926Z,23
2017-02-15T06:24:54.874Z,23.02
2017-02-15T06:25:54.801Z,23.02
2017-02-15T06:26:54.736Z,22.99
2017-02-15T06:27:54.673Z,23.06
2017-02-15T06:28:54.607Z,23.02
2017-02-15T06:29:54.552Z,23.03
2017-02-15T06:30:54.488Z,23
2017-02-15T06:31:54.423Z,22.99
2017-02-15T06:32:54.351Z,23.06
2017-02-15T06:33:54.294Z,23
2017-02-15T06:34:54.235Z,23
2017-02-15T06:35:54.176Z,23.03
2017-02-15T06:36:54.101Z,22.99
2017-02-15T06:37:54.055Z,22.96
2017-02-15T06:38:53.983Z,23
2017-02-15T06:39:53.908Z,22.93
2017-02-15T06:40:53.846Z,22.99
2017-02-15T06:41:53.788Z,23.03
2017-02-15T06:42:53.714Z,22.98
2017-02-15T06:43:53.648Z,23.05
2017-02-15T06:44:53.591Z,23.05
2017-02-15T06:45:53.524Z,23.05
2017-02-15T06:46:53.459Z,23.02
2017-02-15T06:47:53.395Z,23
2017-02-15T06:48:52.946Z,23
2017-02-15T06:49:53.271Z,22.96
2017-02-15T06:50:53.205Z,23
2017-02-15T06:51:53.146Z,23.02
2017-02-15T06:52:53.090Z,23.02
2017-02-15T06:53:53.011Z,22.91
2017-02-15T06:54:52.964Z,22.93
2017-02-15T06:55:52.894Z,22.98
2017-02-15T06:56:52.828Z,23.03
2017-02-15T06:57:52.761Z,22.93
2017-02-15T06:58:52.714Z,22.98
2017-02-15T06:59:52.629Z,23.03
2017-02-15T07:00:52.580Z,22.99
2017-02-15T07:01:52.500Z,22.9
2017-02-15T07:02:52.438Z,23.03
2017-02-15T07:03:52.397Z,22.93
2017-02-15T07:04:52.318Z,23
2017-02-15T07:05:51.861Z,22.93
2017-02-15T07:06:52.193Z,22.9
2017-02-15T07:07:52.118Z,22.93
2017-02-15T07:08:52.055Z,22.94
2017-02-15T07:09:52.005Z,23
2017-02-15T07:10:51.545Z,22.91
2017-02-15T07:11:51.871Z,22.9
2017-02-15T07:12:51.808Z,22.94
2017-02-15T07:13:51.733Z,22.99
2017-02-15T07:14:51.669Z,23
2017-02-15T07:15:51.616Z,22.94
2017-02-15T07:16:51.541Z,22.96
2017-02-15T07:17:51.478Z,23.02
2017-02-15T07:18:51.413Z,22.99
2017-02-15T07:19:51.361Z,23.03
2017-02-15T07:20:51.298Z,22.94
2017-02-15T07:21:51.224Z,23
2017-02-15T07:22:51.165Z,22.9
2017-02-15T07:23:51.107Z,22.94
2017-02-15T07:24:51.041Z,22.96
2017-02-15T07:25:50.589Z,22.96
2017-02-15T07:26:50.929Z,23.02
2017-02-15T07:27:50.840Z,22.99
2017-02-15T07:28:50.783Z,22.9
2017-02-15T07:29:50.711Z,22.9
2017-02-15T07:30:50.274Z,22.94
2017-02-15T07:31:50.616Z,22.85
2017-02-15T07:32:50.522Z,22.9
2017-02-15T07:33:50.458Z,22.88
2017-02-15T07:34:50.399Z,22.9
2017-02-15T07:35:50.331Z,22.84
2017-02-15T07:36:50.275Z,22.99
2017-02-15T07:37:50.204Z,22.93
2017-02-15T07:38:50.137Z,22.93
2017-02-15T07:39:50.076Z,22.99
2017-02-15T07:40:50.022Z,22.93
2017-02-15T07:41:49.951Z,22.98
2017-02-15T07:42:49.882Z,22.96
2017-02-15T07:43:49.820Z,22.96
2017-02-15T07:44:49.758Z,22.91
2017-02-15T07:45:49.695Z,22.93
2017-02-15T07:46:49.632Z,22.93
2017-02-15T07:47:49.562Z,22.91
2017-02-15T07:48:49.531Z,22.94
2017-02-15T07:49:49.455Z,22.93
2017-02-15T07:50:48.985Z,22.98
2017-02-15T07:51:49.309Z,22.88
2017-02-15T07:52:49.241Z,22.91
2017-02-15T07:53:49.191Z,22.99
2017-02-15T07:54:49.114Z,22.91
2017-02-15T07:55:49.050Z,22.91
2017-02-15T07:56:48.985Z,22.93
2017-02-15T07:57:48.921Z,22.94
2017-02-15T07:58:48.857Z,22.98
2017-02-15T07:59:49.117Z,23
2017-02-15T08:00:49.081Z,23
2017-02-15T08:01:48.322Z,23.05
2017-02-15T08:02:48.602Z,23.03
2017-02-15T08:03:48.550Z,22.96
2017-02-15T08:04:48.482Z,23.05
2017-02-15T08:05:48.418Z,23.02
2017-02-15T08:06:48.371Z,23.09
2017-02-15T08:07:48.295Z,23.06
2017-02-15T08:08:48.240Z,23.08
2017-02-15T08:09:47.779Z,23.08
2017-02-15T08:10:48.090Z,23.02
2017-02-15T08:11:48.029Z,23
2017-02-15T08:12:47.977Z,23.05
2017-02-15T08:13:47.900Z,23.06
2017-02-15T08:14:47.846Z,23.06
2017-02-15T08:15:47.780Z,23.03
2017-02-15T08:16:47.710Z,23.05
2017-02-15T08:17:47.646Z,23.09
2017-02-15T08:18:47.582Z,23.1
2017-02-15T08:19:47.143Z,23.05
2017-02-15T08:20:47.462Z,23.05
2017-02-15T08:21:47.388Z,23.09
2017-02-15T08:22:46.979Z,23.03
2017-02-15T08:23:47.269Z,23.08
2017-02-15T08:24:47.201Z,23.06
2017-02-15T08:25:47.148Z,23.05
2017-02-15T08:26:47.088Z,23.08
2017-02-15T08:27:47.021Z,23.03
2017-02-15T08:28:47.222Z,23.05
2017-02-15T08:29:46.504Z,23.1
2017-02-15T08:30:46.855Z,23.08
2017-02-15T08:31:46.754Z,23.1
2017-02-15T08:32:46.697Z,23.17
2017-02-15T08:33:46.624Z,23.1
2017-02-15T08:34:46.562Z,23.12
2017-02-15T08:35:46.798Z,23.08
2017-02-15T08:36:46.449Z,23.09
2017-02-15T08:37:46.396Z,23.06
2017-02-15T08:38:46.318Z,23.09
2017-02-15T08:39:46.255Z,23.08
2017-02-15T08:40:46.280Z,23.12
2017-02-15T08:41:46.115Z,23.1
2017-02-15T08:42:46.100Z,23.08
2017-02-15T08:43:45.993Z,23.08
2017-02-15T08:44:45.926Z,23.2
2017-02-15T08:45:45.856Z,23.18
2017-02-15T08:46:45.812Z,23.08
2017-02-15T08:47:45.738Z,23.1
2017-02-15T08:48:45.673Z,23.12
2017-02-15T08:49:45.614Z,23.09
2017-02-15T08:50:45.842Z,23.21
2017-02-15T08:51:45.494Z,23.08
2017-02-15T08:52:45.415Z,23.08
2017-02-15T08:53:45.362Z,23.08
2017-02-15T08:54:45.289Z,23.08
2017-02-15T08:55:45.239Z,23.09
2017-02-15T08:56:44.819Z,23.06
2017-02-15T08:57:45.097Z,23.12
2017-02-15T08:58:45.048Z,23.18
2017-02-15T08:59:44.969Z,23.05
2017-02-15T09:00:45.327Z,23.12
2017-02-15T09:01:44.914Z,23.2
2017-02-15T09:02:44.476Z,23.17
2017-02-15T09:03:44.719Z,23.09
2017-02-15T09:04:44.660Z,23.06
2017-02-15T09:05:44.652Z,23.09
2017-02-15T09:06:44.549Z,23.1
2017-02-15T09:07:44.489Z,23.17
2017-02-15T09:08:44.405Z,23.08
2017-02-15T09:09:44.340Z,23.06
2017-02-15T09:10:44.280Z,23.08
2017-02-15T09:11:44.224Z,23.08
2017-02-15T09:12:44.297Z,23.18
2017-02-15T09:13:44.214Z,23.09
2017-02-15T09:14:44.187Z,23.08
2017-02-15T09:15:43.953Z,23.06
2017-02-15T09:16:43.909Z,23.05
2017-02-15T09:17:43.830Z,23.08
2017-02-15T09:18:43.767Z,23.15
2017-02-15T09:19:43.699Z,23.09
2017-02-15T09:20:43.647Z,23.17
2017-02-15T09:21:43.582Z,23.08
2017-02-15T09:22:43.204Z,23.12
2017-02-15T09:23:43.445Z,23.09
2017-02-15T09:24:43.382Z,23.17
2017-02-15T09:25:43.119Z,23.09
2017-02-15T09:26:43.503Z,23.1
2017-02-15T09:27:43.315Z,23.15
2017-02-15T09:28:43.156Z,23.18
2017-02-15T09:29:43.095Z,23.12
2017-02-15T09:30:42.761Z,23.17
2017-02-15T09:31:42.947Z,23.09
2017-02-15T09:32:42.877Z,23.18
2017-02-15T09:33:42.836Z,23.13
2017-02-15T09:34:42.744Z,23.09
2017-02-15T09:35:42.839Z,23.12
2017-02-15T09:36:42.614Z,23.12
2017-02-15T09:37:42.550Z,23.17
2017-02-15T09:38:42.499Z,23.17
2017-02-15T09:39:42.427Z,23.18
2017-02-15T09:40:42.367Z,23.08
2017-02-15T09:41:42.298Z,23.12
2017-02-15T09:42:42.256Z,23.12
2017-02-15T09:43:42.178Z,23.1
2017-02-15T09:44:42.122Z,23.09
2017-02-15T09:45:42.058Z,23.06
2017-02-15T09:46:41.983Z,23.17
2017-02-15T09:47:41.537Z,23.08
2017-02-15T09:48:41.470Z,23.08
2017-02-15T09:49:41.417Z,23.08
2017-02-15T09:50:41.740Z,23.09
2017-02-15T09:51:41.933Z,23.08
2017-02-15T09:52:41.603Z,23.06
2017-02-15T09:53:41.170Z,23.12
2017-02-15T09:54:41.549Z,23.09
2017-02-15T09:55:41.297Z,23.08
2017-02-15T09:56:41.375Z,23.15
2017-02-15T09:57:40.924Z,23.08
2017-02-15T09:58:40.934Z,23.08
2017-02-15T09:59:40.808Z,23.12
2017-02-15T10:00:40.772Z,23.12
2017-02-15T10:01:41.065Z,23.08
2017-02-15T10:02:40.973Z,23.09
2017-02-15T10:03:40.911Z,23.1
2017-02-15T10:04:40.840Z,23.1
2017-02-15T10:05:40.792Z,23.08
2017-02-15T10:06:40.709Z,23.09
2017-02-15T10:07:40.645Z,23.15
2017-02-15T10:08:40.203Z,23.09
2017-02-15T10:09:40.526Z,23.13
2017-02-15T10:10:40.463Z,23.13
2017-02-15T10:11:40.414Z,23.17
2017-02-15T10:12:39.957Z,23.1
2017-02-15T10:13:40.260Z,23.13
2017-02-15T10:14:39.837Z,23.15
2017-02-15T10:15:40.138Z,23.13
2017-02-15T10:16:40.092Z,23.13
2017-02-15T10:17:40.346Z,23.12
2017-02-15T10:18:40.101Z,23.1
2017-02-15T10:19:39.894Z,23.1
2017-02-15T10:20:39.829Z,23.1
2017-02-15T10:21:39.772Z,23.13
2017-02-15T10:22:39.957Z,23.12
2017-02-15T10:23:39.263Z,23.13
2017-02-15T10:24:39.585Z,23.17
2017-02-15T10:25:39.755Z,23.09
2017-02-15T10:26:39.455Z,23.18
2017-02-15T10:27:39.399Z,23.1
2017-02-15T10:28:39.340Z,23.17
2017-02-15T10:29:39.261Z,23.2
2017-02-15T10:30:39.186Z,23.17
2017-02-15T10:31:39.123Z,23.1
2017-02-15T10:32:39.057Z,23.08
2017-02-15T10:33:38.613Z,23.09
2017-02-15T10:34:38.964Z,23.13
2017-02-15T10:35:38.872Z,23.13
2017-02-15T10:36:38.833Z,23.12
2017-02-15T10:37:38.783Z,23.2
2017-02-15T10:38:38.303Z,23.13
2017-02-15T10:39:38.611Z,23.13
2017-02-15T10:40:38.162Z,23.12
2017-02-15T10:41:38.508Z,23.12
2017-02-15T10:42:38.462Z,23.12
2017-02-15T10:43:37.988Z,23.13
2017-02-15T10:44:38.547Z,23.13
2017-02-15T10:45:38.253Z,23.15
2017-02-15T10:46:38.187Z,23.13
2017-02-15T10:47:38.103Z,23.13
2017-02-15T10:48:37.653Z,23.15
2017-02-15T10:49:37.602Z,23.21
2017-02-15T10:50:37.865Z,23.18
2017-02-15T10:51:37.469Z,23.2
2017-02-15T10:52:37.822Z,23.18
2017-02-15T10:53:37.976Z,23.23
2017-02-15T10:54:37.688Z,23.15
2017-02-15T10:55:37.481Z,23.23
2017-02-15T10:56:37.531Z,23.17
2017-02-15T10:57:37.121Z,23.13
2017-02-15T10:58:37.408Z,23.13
2017-02-15T10:59:37.596Z,23.13
2017-02-15T11:00:37.300Z,23.15
2017-02-15T11:01:36.849Z,23.21
2017-02-15T11:02:37.179Z,23.27
2017-02-15T11:03:37.086Z,23.13
2017-02-15T11:04:37.050Z,23.24
2017-02-15T11:05:36.977Z,23.21
2017-02-15T11:06:36.915Z,23.18
2017-02-15T11:07:36.834Z,23.18
2017-02-15T11:08:36.768Z,23.18
2017-02-15T11:09:36.712Z,23.28
2017-02-15T11:10:36.642Z,23.17
2017-02-15T11:11:36.191Z,23.23
2017-02-15T11:12:36.520Z,23.21
2017-02-15T11:13:36.466Z,23.21
2017-02-15T11:14:36.000Z,23.24
2017-02-15T11:15:36.323Z,23.13
2017-02-15T11:16:36.277Z,23.23
2017-02-15T11:17:36.195Z,23.2
2017-02-15T11:18:36.167Z,23.21
2017-02-15T11:19:36.072Z,23.18
2017-02-15T11:20:36.276Z,23.2
2017-02-15T11:21:35.574Z,23.24
2017-02-15T11:22:35.884Z,23.23
2017-02-15T11:23:35.812Z,23.17
2017-02-15T11:24:35.803Z,23.23
2017-02-15T11:25:35.943Z,23.24
2017-02-15T11:26:35.623Z,23.21
2017-02-15T11:27:35.564Z,23.24
2017-02-15T11:28:35.505Z,23.2
2017-02-15T11:29:35.456Z,23.24
2017-02-15T11:30:35.583Z,23.23
2017-02-15T11:31:35.314Z,23.32
2017-02-15T11:32:35.248Z,23.34
2017-02-15T11:33:35.192Z,23.28
2017-02-15T11:34:35.131Z,23.4
2017-02-15T11:35:35.066Z,23.28
2017-02-15T11:36:34.987Z,23.43
2017-02-15T11:37:34.950Z,23.34
2017-02-15T11:38:34.866Z,23.34
2017-02-15T11:39:34.816Z,23.28
2017-02-15T11:40:34.759Z,23.28
2017-02-15T11:41:34.694Z,23.37
2017-02-15T11:42:34.621Z,23.32
2017-02-15T11:43:34.553Z,23.41
2017-02-15T11:44:34.108Z,23.39
2017-02-15T11:45:34.423Z,23.41
2017-02-15T11:46:34.358Z,23.43
2017-02-15T11:47:34.308Z,23.44
2017-02-15T11:48:33.847Z,23.39
2017-02-15T11:49:33.788Z,23.44
2017-02-15T11:50:34.107Z,23.44
2017-02-15T11:51:34.054Z,23.48
2017-02-15T11:52:33.991Z,23.56
2017-02-15T11:53:33.919Z,23.5
2017-02-15T11:54:33.857Z,23.56
2017-02-15T11:55:33.798Z,23.51
2017-02-15T11:56:33.726Z,23.54
2017-02-15T11:57:33.277Z,23.48
2017-02-15T11:58:33.606Z,23.5
2017-02-15T11:59:33.533Z,23.5
2017-02-15T12:00:33.472Z,23.5
2017-02-15T12:01:33.408Z,23.5
2017-02-15T12:02:33.352Z,23.51
2017-02-15T12:03:33.285Z,23.5
2017-02-15T12:04:33.230Z,23.48
2017-02-15T12:05:33.171Z,23.63
2017-02-15T12:06:32.721Z,23.54
2017-02-15T12:07:33.048Z,23.48
2017-02-15T12:08:32.969Z,23.56
2017-02-15T12:09:32.923Z,23.56
2017-02-15T12:10:32.841Z,23.56
2017-02-15T12:11:32.779Z,23.61
2017-02-15T12:12:32.720Z,23.59
2017-02-15T12:13:32.275Z,23.71
2017-02-15T12:14:32.600Z,23.62
2017-02-15T12:15:32.525Z,23.62
2017-02-15T12:16:32.095Z,23.68
2017-02-15T12:17:32.459Z,23.63
2017-02-15T12:18:32.336Z,23.62
2017-02-15T12:19:32.282Z,23.66
2017-02-15T12:20:31.838Z,23.62
2017-02-15T12:21:31.404Z,23.66
2017-02-15T12:22:31.702Z,23.69
2017-02-15T12:23:32.024Z,23.66
2017-02-15T12:24:31.581Z,23.62
2017-02-15T12:25:31.971Z,23.66
2017-02-15T12:26:31.839Z,23.68
2017-02-15T12:27:31.018Z,23.68
2017-02-15T12:28:31.735Z,23.68
2017-02-15T12:29:31.644Z,23.71
2017-02-15T12:30:31.591Z,23.74
2017-02-15T12:31:31.518Z,23.68
2017-02-15T12:32:31.474Z,23.32
2017-02-15T12:33:31.392Z,23.27
2017-02-15T12:34:31.335Z,23.36
2017-02-15T12:35:31.265Z,23.32
2017-02-15T12:36:31.215Z,23.4
2017-02-15T12:37:31.358Z,23.48
2017-02-15T12:38:31.341Z,23.55
2017-02-15T12:39:31.020Z,23.56
2017-02-15T12:40:30.952Z,23.58
2017-02-15T12:41:30.905Z,23.56
2017-02-15T12:42:30.852Z,23.58
2017-02-15T12:43:30.770Z,23.65
2017-02-15T12:44:30.714Z,23.71
2017-02-15T12:45:30.642Z,23.71
2017-02-15T12:46:30.582Z,23.73
2017-02-15T12:47:30.508Z,23.76
2017-02-15T12:48:30.444Z,23.74
2017-02-15T12:49:30.394Z,23.74
2017-02-15T12:50:30.339Z,23.8
2017-02-15T12:51:30.259Z,23.83
2017-02-15T12:52:30.202Z,23.8
2017-02-15T12:53:30.129Z,23.83
2017-02-15T12:54:30.076Z,23.83
2017-02-15T12:55:30.018Z,23.78
2017-02-15T12:56:30.002Z,23.91